sensor_id;sensor_type;location;lat;lon;timestamp;P1;durP1;ratioP1;P2;durP2;ratioP2
6983;SDS011;3532;51.118;7.210;2023-04-22T00:00:40;4.20;;;3.80;;
6983;SDS011;3532;51.118;7.210;2023-04-22T00:03:06;4.97;;;3.83;;
6983;SDS011;3532;51.118;7.210;2023-04-22T00:05:32;5.30;;;4.80;;
6983;SDS011;3532;51.118;7.210;2023-04-22T00:07:57;5.83;;;5.33;;
6983;SDS011;3532;51.118;7.210;2023-04-22T00:10:23;4.93;;;4.43;;
6983;SDS011;3532;51.118;7.210;2023-04-22T00:12:48;5.73;;;5.23;;
6983;SDS011;3532;51.118;7.210;2023-04-22T00:15:13;5.40;;;4.63;;
6983;SDS011;3532;51.118;7.210;2023-04-22T00:17:39;5.27;;;4.57;;
6983;SDS011;3532;51.118;7.210;2023-04-22T00:20:05;4.50;;;4.10;;
6983;SDS011;3532;51.118;7.210;2023-04-22T00:22:31;4.43;;;4.00;;
6983;SDS011;3532;51.118;7.210;2023-04-22T00:24:56;4.20;;;3.90;;
6983;SDS011;3532;51.118;7.210;2023-04-22T00:27:22;5.87;;;4.23;;
6983;SDS011;3532;51.118;7.210;2023-04-22T00:29:47;4.43;;;4.03;;
6983;SDS011;3532;51.118;7.210;2023-04-22T00:32:12;4.57;;;4.17;;
6983;SDS011;3532;51.118;7.210;2023-04-22T00:34:40;4.20;;;3.80;;
6983;SDS011;3532;51.118;7.210;2023-04-22T00:37:05;4.77;;;4.20;;
6983;SDS011;3532;51.118;7.210;2023-04-22T00:39:30;4.90;;;4.40;;
6983;SDS011;3532;51.118;7.210;2023-04-22T00:41:56;5.00;;;4.50;;
6983;SDS011;3532;51.118;7.210;2023-04-22T00:44:21;5.00;;;4.60;;
6983;SDS011;3532;51.118;7.210;2023-04-22T00:46:46;4.00;;;3.70;;
6983;SDS011;3532;51.118;7.210;2023-04-22T00:49:12;4.43;;;4.03;;
6983;SDS011;3532;51.118;7.210;2023-04-22T00:51:39;4.80;;;4.30;;
6983;SDS011;3532;51.118;7.210;2023-04-22T00:54:04;4.27;;;3.93;;
6983;SDS011;3532;51.118;7.210;2023-04-22T00:56:30;4.80;;;4.00;;
6983;SDS011;3532;51.118;7.210;2023-04-22T00:58:56;3.77;;;3.47;;
6983;SDS011;3532;51.118;7.210;2023-04-22T01:01:22;4.50;;;4.10;;
6983;SDS011;3532;51.118;7.210;2023-04-22T01:03:48;4.43;;;4.03;;
6983;SDS011;3532;51.118;7.210;2023-04-22T01:06:14;4.30;;;3.90;;
6983;SDS011;3532;51.118;7.210;2023-04-22T01:08:40;4.63;;;4.23;;
6983;SDS011;3532;51.118;7.210;2023-04-22T01:11:05;4.07;;;3.67;;
6983;SDS011;3532;51.118;7.210;2023-04-22T01:13:31;4.57;;;4.17;;
6983;SDS011;3532;51.118;7.210;2023-04-22T01:15:56;3.87;;;3.47;;
6983;SDS011;3532;51.118;7.210;2023-04-22T01:18:23;3.73;;;3.43;;
6983;SDS011;3532;51.118;7.210;2023-04-22T01:20:49;3.80;;;3.40;;
6983;SDS011;3532;51.118;7.210;2023-04-22T01:23:18;4.30;;;3.90;;
6983;SDS011;3532;51.118;7.210;2023-04-22T01:25:45;4.07;;;3.73;;
6983;SDS011;3532;51.118;7.210;2023-04-22T01:28:10;5.17;;;4.00;;
6983;SDS011;3532;51.118;7.210;2023-04-22T01:30:36;4.67;;;3.80;;
6983;SDS011;3532;51.118;7.210;2023-04-22T01:33:01;4.17;;;3.80;;
6983;SDS011;3532;51.118;7.210;2023-04-22T01:35:26;5.77;;;4.73;;
6983;SDS011;3532;51.118;7.210;2023-04-22T01:37:54;6.00;;;3.90;;
6983;SDS011;3532;51.118;7.210;2023-04-22T01:40:21;4.50;;;4.03;;
6983;SDS011;3532;51.118;7.210;2023-04-22T01:42:46;4.30;;;3.53;;
6983;SDS011;3532;51.118;7.210;2023-04-22T01:45:12;4.70;;;4.20;;
6983;SDS011;3532;51.118;7.210;2023-04-22T01:47:37;4.10;;;3.80;;
6983;SDS011;3532;51.118;7.210;2023-04-22T01:50:03;4.57;;;4.17;;
6983;SDS011;3532;51.118;7.210;2023-04-22T01:52:29;4.27;;;3.87;;
6983;SDS011;3532;51.118;7.210;2023-04-22T01:54:54;4.13;;;3.83;;
6983;SDS011;3532;51.118;7.210;2023-04-22T01:57:20;4.77;;;3.80;;
6983;SDS011;3532;51.118;7.210;2023-04-22T01:59:45;4.57;;;4.17;;
6983;SDS011;3532;51.118;7.210;2023-04-22T02:02:10;4.47;;;4.07;;
6983;SDS011;3532;51.118;7.210;2023-04-22T02:04:36;4.00;;;3.63;;
6983;SDS011;3532;51.118;7.210;2023-04-22T02:07:01;6.57;;;3.63;;
6983;SDS011;3532;51.118;7.210;2023-04-22T02:09:26;5.40;;;3.90;;
6983;SDS011;3532;51.118;7.210;2023-04-22T02:11:51;4.43;;;4.13;;
6983;SDS011;3532;51.118;7.210;2023-04-22T02:14:17;4.83;;;3.93;;
6983;SDS011;3532;51.118;7.210;2023-04-22T02:16:42;4.87;;;3.30;;
6983;SDS011;3532;51.118;7.210;2023-04-22T02:19:08;4.30;;;3.90;;
6983;SDS011;3532;51.118;7.210;2023-04-22T02:21:33;3.90;;;3.60;;
6983;SDS011;3532;51.118;7.210;2023-04-22T02:23:59;4.90;;;3.50;;
6983;SDS011;3532;51.118;7.210;2023-04-22T02:26:24;3.77;;;3.47;;
6983;SDS011;3532;51.118;7.210;2023-04-22T02:28:50;4.20;;;3.80;;
6983;SDS011;3532;51.118;7.210;2023-04-22T02:31:16;5.77;;;3.83;;
6983;SDS011;3532;51.118;7.210;2023-04-22T02:33:41;5.83;;;4.27;;
6983;SDS011;3532;51.118;7.210;2023-04-22T02:36:06;5.17;;;4.00;;
6983;SDS011;3532;51.118;7.210;2023-04-22T02:38:32;3.97;;;3.63;;
6983;SDS011;3532;51.118;7.210;2023-04-22T02:40:57;4.50;;;4.10;;
6983;SDS011;3532;51.118;7.210;2023-04-22T02:43:22;3.80;;;3.40;;
6983;SDS011;3532;51.118;7.210;2023-04-22T02:45:48;4.17;;;3.80;;
6983;SDS011;3532;51.118;7.210;2023-04-22T02:48:13;3.73;;;3.20;;
6983;SDS011;3532;51.118;7.210;2023-04-22T02:50:38;6.27;;;3.93;;
6983;SDS011;3532;51.118;7.210;2023-04-22T02:53:04;5.23;;;3.67;;
6983;SDS011;3532;51.118;7.210;2023-04-22T02:55:30;4.17;;;3.77;;
6983;SDS011;3532;51.118;7.210;2023-04-22T02:57:55;3.20;;;2.90;;
6983;SDS011;3532;51.118;7.210;2023-04-22T03:00:20;7.17;;;3.70;;
6983;SDS011;3532;51.118;7.210;2023-04-22T03:02:46;6.67;;;3.97;;
6983;SDS011;3532;51.118;7.210;2023-04-22T03:05:11;4.67;;;3.30;;
6983;SDS011;3532;51.118;7.210;2023-04-22T03:07:37;4.37;;;3.87;;
6983;SDS011;3532;51.118;7.210;2023-04-22T03:10:02;4.33;;;3.53;;
6983;SDS011;3532;51.118;7.210;2023-04-22T03:12:28;5.77;;;4.17;;
6983;SDS011;3532;51.118;7.210;2023-04-22T03:14:53;4.23;;;3.57;;
6983;SDS011;3532;51.118;7.210;2023-04-22T03:17:18;3.80;;;3.50;;
6983;SDS011;3532;51.118;7.210;2023-04-22T03:19:44;3.93;;;3.57;;
6983;SDS011;3532;51.118;7.210;2023-04-22T03:22:10;3.87;;;3.50;;
6983;SDS011;3532;51.118;7.210;2023-04-22T03:24:35;4.07;;;3.53;;
6983;SDS011;3532;51.118;7.210;2023-04-22T03:27:01;3.83;;;3.53;;
6983;SDS011;3532;51.118;7.210;2023-04-22T03:29:28;4.43;;;3.70;;
6983;SDS011;3532;51.118;7.210;2023-04-22T03:31:53;4.30;;;3.10;;
6983;SDS011;3532;51.118;7.210;2023-04-22T03:34:18;5.77;;;3.77;;
6983;SDS011;3532;51.118;7.210;2023-04-22T03:36:44;3.63;;;3.33;;
6983;SDS011;3532;51.118;7.210;2023-04-22T03:39:10;4.60;;;3.73;;
6983;SDS011;3532;51.118;7.210;2023-04-22T03:41:35;3.73;;;3.43;;
6983;SDS011;3532;51.118;7.210;2023-04-22T03:44:00;4.10;;;3.80;;
6983;SDS011;3532;51.118;7.210;2023-04-22T03:46:25;4.90;;;4.00;;
6983;SDS011;3532;51.118;7.210;2023-04-22T03:48:51;3.80;;;3.10;;
6983;SDS011;3532;51.118;7.210;2023-04-22T03:51:16;4.13;;;3.73;;
6983;SDS011;3532;51.118;7.210;2023-04-22T03:53:41;3.83;;;3.53;;
6983;SDS011;3532;51.118;7.210;2023-04-22T03:56:07;5.80;;;3.73;;
6983;SDS011;3532;51.118;7.210;2023-04-22T03:58:32;4.00;;;3.60;;
6983;SDS011;3532;51.118;7.210;2023-04-22T04:00:57;3.87;;;3.47;;
6983;SDS011;3532;51.118;7.210;2023-04-22T04:03:22;3.77;;;3.37;;
6983;SDS011;3532;51.118;7.210;2023-04-22T04:05:48;3.90;;;3.53;;
6983;SDS011;3532;51.118;7.210;2023-04-22T04:08:13;4.07;;;3.70;;
6983;SDS011;3532;51.118;7.210;2023-04-22T04:10:38;3.53;;;3.23;;
6983;SDS011;3532;51.118;7.210;2023-04-22T04:13:05;3.80;;;3.50;;
6983;SDS011;3532;51.118;7.210;2023-04-22T04:15:31;4.70;;;4.30;;
6983;SDS011;3532;51.118;7.210;2023-04-22T04:17:56;4.87;;;3.80;;
6983;SDS011;3532;51.118;7.210;2023-04-22T04:20:25;3.80;;;3.50;;
6983;SDS011;3532;51.118;7.210;2023-04-22T04:22:50;3.33;;;3.03;;
6983;SDS011;3532;51.118;7.210;2023-04-22T04:25:15;3.83;;;3.50;;
6983;SDS011;3532;51.118;7.210;2023-04-22T04:27:42;5.07;;;3.33;;
6983;SDS011;3532;51.118;7.210;2023-04-22T04:30:08;3.93;;;3.37;;
6983;SDS011;3532;51.118;7.210;2023-04-22T04:32:34;4.03;;;3.60;;
6983;SDS011;3532;51.118;7.210;2023-04-22T04:34:59;3.67;;;3.37;;
6983;SDS011;3532;51.118;7.210;2023-04-22T04:37:26;3.83;;;3.53;;
6983;SDS011;3532;51.118;7.210;2023-04-22T04:39:51;3.60;;;3.27;;
6983;SDS011;3532;51.118;7.210;2023-04-22T04:42:17;3.80;;;3.23;;
6983;SDS011;3532;51.118;7.210;2023-04-22T04:44:43;3.57;;;3.00;;
6983;SDS011;3532;51.118;7.210;2023-04-22T04:47:09;5.60;;;3.63;;
6983;SDS011;3532;51.118;7.210;2023-04-22T04:49:34;3.90;;;2.93;;
6983;SDS011;3532;51.118;7.210;2023-04-22T04:52:03;3.33;;;3.00;;
6983;SDS011;3532;51.118;7.210;2023-04-22T04:54:29;5.97;;;3.23;;
6983;SDS011;3532;51.118;7.210;2023-04-22T04:56:54;4.03;;;3.13;;
6983;SDS011;3532;51.118;7.210;2023-04-22T04:59:21;4.40;;;3.33;;
6983;SDS011;3532;51.118;7.210;2023-04-22T05:01:46;4.80;;;3.10;;
6983;SDS011;3532;51.118;7.210;2023-04-22T05:04:11;3.63;;;3.27;;
6983;SDS011;3532;51.118;7.210;2023-04-22T05:06:37;4.23;;;3.40;;
6983;SDS011;3532;51.118;7.210;2023-04-22T05:09:02;3.57;;;3.27;;
6983;SDS011;3532;51.118;7.210;2023-04-22T05:11:27;3.40;;;3.10;;
6983;SDS011;3532;51.118;7.210;2023-04-22T05:13:53;3.33;;;3.03;;
6983;SDS011;3532;51.118;7.210;2023-04-22T05:16:18;3.00;;;2.70;;
6983;SDS011;3532;51.118;7.210;2023-04-22T05:18:43;3.60;;;3.30;;
6983;SDS011;3532;51.118;7.210;2023-04-22T05:21:09;4.00;;;3.50;;
6983;SDS011;3532;51.118;7.210;2023-04-22T05:23:34;4.67;;;3.37;;
6983;SDS011;3532;51.118;7.210;2023-04-22T05:25:59;4.70;;;3.37;;
6983;SDS011;3532;51.118;7.210;2023-04-22T05:28:25;3.47;;;3.00;;
6983;SDS011;3532;51.118;7.210;2023-04-22T05:30:50;4.23;;;2.93;;
6983;SDS011;3532;51.118;7.210;2023-04-22T05:33:15;3.40;;;3.10;;
6983;SDS011;3532;51.118;7.210;2023-04-22T05:35:41;3.57;;;3.27;;
6983;SDS011;3532;51.118;7.210;2023-04-22T05:38:06;5.23;;;3.60;;
6983;SDS011;3532;51.118;7.210;2023-04-22T05:40:31;4.40;;;3.00;;
6983;SDS011;3532;51.118;7.210;2023-04-22T05:42:57;5.77;;;3.13;;
6983;SDS011;3532;51.118;7.210;2023-04-22T05:45:22;2.93;;;2.73;;
6983;SDS011;3532;51.118;7.210;2023-04-22T05:47:47;3.07;;;2.87;;
6983;SDS011;3532;51.118;7.210;2023-04-22T05:50:13;3.50;;;3.20;;
6983;SDS011;3532;51.118;7.210;2023-04-22T05:52:38;3.43;;;2.83;;
6983;SDS011;3532;51.118;7.210;2023-04-22T05:55:04;3.90;;;3.40;;
6983;SDS011;3532;51.118;7.210;2023-04-22T05:57:30;3.30;;;3.00;;
6983;SDS011;3532;51.118;7.210;2023-04-22T05:59:55;3.20;;;2.90;;
6983;SDS011;3532;51.118;7.210;2023-04-22T06:02:21;3.60;;;3.30;;
6983;SDS011;3532;51.118;7.210;2023-04-22T06:04:46;4.10;;;3.53;;
6983;SDS011;3532;51.118;7.210;2023-04-22T06:07:11;3.87;;;3.50;;
6983;SDS011;3532;51.118;7.210;2023-04-22T06:09:37;3.70;;;3.37;;
6983;SDS011;3532;51.118;7.210;2023-04-22T06:12:02;3.30;;;3.00;;
6983;SDS011;3532;51.118;7.210;2023-04-22T06:14:27;2.87;;;2.67;;
6983;SDS011;3532;51.118;7.210;2023-04-22T06:16:53;3.93;;;3.13;;
6983;SDS011;3532;51.118;7.210;2023-04-22T06:19:18;3.30;;;3.00;;
6983;SDS011;3532;51.118;7.210;2023-04-22T06:21:44;3.63;;;3.33;;
6983;SDS011;3532;51.118;7.210;2023-04-22T06:24:09;2.70;;;2.50;;
6983;SDS011;3532;51.118;7.210;2023-04-22T06:26:37;3.57;;;3.27;;
6983;SDS011;3532;51.118;7.210;2023-04-22T06:29:03;2.73;;;2.53;;
6983;SDS011;3532;51.118;7.210;2023-04-22T06:31:29;3.33;;;2.73;;
6983;SDS011;3532;51.118;7.210;2023-04-22T06:33:57;3.80;;;2.90;;
6983;SDS011;3532;51.118;7.210;2023-04-22T06:36:23;3.23;;;2.67;;
6983;SDS011;3532;51.118;7.210;2023-04-22T06:38:49;4.00;;;2.73;;
6983;SDS011;3532;51.118;7.210;2023-04-22T06:41:15;3.00;;;2.50;;
6983;SDS011;3532;51.118;7.210;2023-04-22T06:43:40;2.80;;;2.60;;
6983;SDS011;3532;51.118;7.210;2023-04-22T06:46:06;3.10;;;2.90;;
6983;SDS011;3532;51.118;7.210;2023-04-22T06:48:31;3.40;;;2.70;;
6983;SDS011;3532;51.118;7.210;2023-04-22T06:50:56;3.57;;;2.67;;
6983;SDS011;3532;51.118;7.210;2023-04-22T06:53:22;3.40;;;2.90;;
6983;SDS011;3532;51.118;7.210;2023-04-22T06:55:47;3.07;;;2.30;;
6983;SDS011;3532;51.118;7.210;2023-04-22T06:58:13;2.97;;;2.77;;
6983;SDS011;3532;51.118;7.210;2023-04-22T07:00:38;3.00;;;2.80;;
6983;SDS011;3532;51.118;7.210;2023-04-22T07:03:03;3.27;;;2.73;;
6983;SDS011;3532;51.118;7.210;2023-04-22T07:05:29;4.60;;;2.93;;
6983;SDS011;3532;51.118;7.210;2023-04-22T07:07:54;5.03;;;2.80;;
6983;SDS011;3532;51.118;7.210;2023-04-22T07:10:19;3.77;;;2.37;;
6983;SDS011;3532;51.118;7.210;2023-04-22T07:12:44;2.40;;;2.20;;
6983;SDS011;3532;51.118;7.210;2023-04-22T07:15:10;4.00;;;2.43;;
6983;SDS011;3532;51.118;7.210;2023-04-22T07:17:35;2.93;;;2.70;;
6983;SDS011;3532;51.118;7.210;2023-04-22T07:20:01;3.90;;;2.60;;
6983;SDS011;3532;51.118;7.210;2023-04-22T07:22:26;2.40;;;2.20;;
6983;SDS011;3532;51.118;7.210;2023-04-22T07:24:51;5.20;;;2.67;;
6983;SDS011;3532;51.118;7.210;2023-04-22T07:27:17;2.70;;;2.50;;
6983;SDS011;3532;51.118;7.210;2023-04-22T07:29:42;3.10;;;2.80;;
6983;SDS011;3532;51.118;7.210;2023-04-22T07:32:07;3.67;;;2.37;;
6983;SDS011;3532;51.118;7.210;2023-04-22T07:34:33;4.13;;;2.80;;
6983;SDS011;3532;51.118;7.210;2023-04-22T07:36:58;2.93;;;2.60;;
6983;SDS011;3532;51.118;7.210;2023-04-22T07:39:24;3.33;;;2.73;;
6983;SDS011;3532;51.118;7.210;2023-04-22T07:41:49;2.50;;;2.30;;
6983;SDS011;3532;51.118;7.210;2023-04-22T07:44:15;3.67;;;2.57;;
6983;SDS011;3532;51.118;7.210;2023-04-22T07:46:45;4.53;;;2.57;;
6983;SDS011;3532;51.118;7.210;2023-04-22T07:49:10;3.77;;;2.33;;
6983;SDS011;3532;51.118;7.210;2023-04-22T07:51:37;3.70;;;2.67;;
6983;SDS011;3532;51.118;7.210;2023-04-22T07:54:03;2.90;;;2.70;;
6983;SDS011;3532;51.118;7.210;2023-04-22T07:56:28;2.73;;;2.53;;
6983;SDS011;3532;51.118;7.210;2023-04-22T07:58:54;3.87;;;2.70;;
6983;SDS011;3532;51.118;7.210;2023-04-22T08:01:19;3.33;;;2.70;;
6983;SDS011;3532;51.118;7.210;2023-04-22T08:03:45;3.80;;;2.63;;
6983;SDS011;3532;51.118;7.210;2023-04-22T08:06:10;2.73;;;2.33;;
6983;SDS011;3532;51.118;7.210;2023-04-22T08:08:35;3.00;;;2.67;;
6983;SDS011;3532;51.118;7.210;2023-04-22T08:11:00;3.27;;;3.00;;
6983;SDS011;3532;51.118;7.210;2023-04-22T08:13:26;3.40;;;2.87;;
6983;SDS011;3532;51.118;7.210;2023-04-22T08:15:51;2.83;;;2.50;;
6983;SDS011;3532;51.118;7.210;2023-04-22T08:18:16;2.57;;;2.37;;
6983;SDS011;3532;51.118;7.210;2023-04-22T08:20:42;2.93;;;2.37;;
6983;SDS011;3532;51.118;7.210;2023-04-22T08:23:07;3.83;;;2.57;;
6983;SDS011;3532;51.118;7.210;2023-04-22T08:25:33;3.90;;;2.60;;
6983;SDS011;3532;51.118;7.210;2023-04-22T08:27:58;3.73;;;2.60;;
6983;SDS011;3532;51.118;7.210;2023-04-22T08:30:24;2.80;;;2.60;;
6983;SDS011;3532;51.118;7.210;2023-04-22T08:32:49;2.67;;;2.47;;
6983;SDS011;3532;51.118;7.210;2023-04-22T08:35:16;2.60;;;2.40;;
6983;SDS011;3532;51.118;7.210;2023-04-22T08:37:42;3.83;;;2.70;;
6983;SDS011;3532;51.118;7.210;2023-04-22T08:40:07;3.10;;;2.80;;
6983;SDS011;3532;51.118;7.210;2023-04-22T08:42:33;4.23;;;2.70;;
6983;SDS011;3532;51.118;7.210;2023-04-22T08:44:58;2.67;;;2.47;;
6983;SDS011;3532;51.118;7.210;2023-04-22T08:47:24;3.17;;;2.70;;
6983;SDS011;3532;51.118;7.210;2023-04-22T08:49:50;2.70;;;2.07;;
6983;SDS011;3532;51.118;7.210;2023-04-22T08:52:18;3.20;;;2.50;;
6983;SDS011;3532;51.118;7.210;2023-04-22T08:54:43;3.57;;;2.97;;
6983;SDS011;3532;51.118;7.210;2023-04-22T08:57:09;4.13;;;2.37;;
6983;SDS011;3532;51.118;7.210;2023-04-22T08:59:36;2.97;;;2.67;;
6983;SDS011;3532;51.118;7.210;2023-04-22T09:02:02;4.83;;;2.80;;
6983;SDS011;3532;51.118;7.210;2023-04-22T09:04:28;2.60;;;2.30;;
6983;SDS011;3532;51.118;7.210;2023-04-22T09:06:55;2.83;;;2.50;;
6983;SDS011;3532;51.118;7.210;2023-04-22T09:09:20;2.20;;;2.03;;
6983;SDS011;3532;51.118;7.210;2023-04-22T09:11:46;3.17;;;2.33;;
6983;SDS011;3532;51.118;7.210;2023-04-22T09:14:11;4.70;;;2.70;;
6983;SDS011;3532;51.118;7.210;2023-04-22T09:16:40;3.27;;;2.57;;
6983;SDS011;3532;51.118;7.210;2023-04-22T09:19:12;4.23;;;2.40;;
6983;SDS011;3532;51.118;7.210;2023-04-22T09:21:38;3.00;;;2.70;;
6983;SDS011;3532;51.118;7.210;2023-04-22T09:24:05;3.00;;;2.70;;
6983;SDS011;3532;51.118;7.210;2023-04-22T09:26:32;7.50;;;2.50;;
6983;SDS011;3532;51.118;7.210;2023-04-22T09:28:58;2.93;;;2.27;;
6983;SDS011;3532;51.118;7.210;2023-04-22T09:31:26;2.63;;;2.43;;
6983;SDS011;3532;51.118;7.210;2023-04-22T09:33:53;4.27;;;2.30;;
6983;SDS011;3532;51.118;7.210;2023-04-22T09:36:24;2.53;;;2.20;;
6983;SDS011;3532;51.118;7.210;2023-04-22T09:38:54;4.73;;;2.63;;
6983;SDS011;3532;51.118;7.210;2023-04-22T09:41:28;2.83;;;2.43;;
6983;SDS011;3532;51.118;7.210;2023-04-22T09:43:55;2.57;;;2.33;;
6983;SDS011;3532;51.118;7.210;2023-04-22T09:46:25;2.73;;;2.50;;
6983;SDS011;3532;51.118;7.210;2023-04-22T09:48:51;2.77;;;2.23;;
6983;SDS011;3532;51.118;7.210;2023-04-22T09:51:20;2.77;;;2.43;;
6983;SDS011;3532;51.118;7.210;2023-04-22T09:53:56;3.00;;;2.57;;
6983;SDS011;3532;51.118;7.210;2023-04-22T09:56:38;2.53;;;2.10;;
6983;SDS011;3532;51.118;7.210;2023-04-22T09:59:04;4.03;;;3.13;;
6983;SDS011;3532;51.118;7.210;2023-04-22T10:01:36;2.77;;;2.53;;
6983;SDS011;3532;51.118;7.210;2023-04-22T10:04:04;3.10;;;2.50;;
6983;SDS011;3532;51.118;7.210;2023-04-22T10:06:31;3.87;;;2.20;;
6983;SDS011;3532;51.118;7.210;2023-04-22T10:08:57;3.40;;;2.40;;
6983;SDS011;3532;51.118;7.210;2023-04-22T10:11:23;2.40;;;2.20;;
6983;SDS011;3532;51.118;7.210;2023-04-22T10:13:49;2.43;;;2.10;;
6983;SDS011;3532;51.118;7.210;2023-04-22T10:16:14;3.53;;;2.30;;
6983;SDS011;3532;51.118;7.210;2023-04-22T10:18:39;3.30;;;2.47;;
6983;SDS011;3532;51.118;7.210;2023-04-22T10:21:05;3.20;;;2.00;;
6983;SDS011;3532;51.118;7.210;2023-04-22T10:23:31;2.67;;;2.40;;
6983;SDS011;3532;51.118;7.210;2023-04-22T10:25:56;4.27;;;2.97;;
6983;SDS011;3532;51.118;7.210;2023-04-22T10:28:22;2.60;;;2.27;;
6983;SDS011;3532;51.118;7.210;2023-04-22T10:30:48;3.83;;;2.63;;
6983;SDS011;3532;51.118;7.210;2023-04-22T10:33:35;3.50;;;2.70;;
6983;SDS011;3532;51.118;7.210;2023-04-22T10:41:30;3.40;;;2.67;;
6983;SDS011;3532;51.118;7.210;2023-04-22T10:43:57;2.80;;;2.60;;
6983;SDS011;3532;51.118;7.210;2023-04-22T10:49:06;2.87;;;2.40;;
6983;SDS011;3532;51.118;7.210;2023-04-22T10:51:45;3.60;;;2.60;;
6983;SDS011;3532;51.118;7.210;2023-04-22T10:57:07;3.63;;;2.50;;
6983;SDS011;3532;51.118;7.210;2023-04-22T10:59:34;2.60;;;2.40;;
6983;SDS011;3532;51.118;7.210;2023-04-22T11:02:20;2.87;;;2.40;;
6983;SDS011;3532;51.118;7.210;2023-04-22T11:04:47;2.70;;;2.50;;
6983;SDS011;3532;51.118;7.210;2023-04-22T11:10:06;5.03;;;2.60;;
6983;SDS011;3532;51.118;7.210;2023-04-22T11:14:58;3.00;;;2.70;;
6983;SDS011;3532;51.118;7.210;2023-04-22T11:17:24;2.30;;;2.07;;
6983;SDS011;3532;51.118;7.210;2023-04-22T11:19:50;3.27;;;2.57;;
6983;SDS011;3532;51.118;7.210;2023-04-22T11:22:20;4.27;;;2.43;;
6983;SDS011;3532;51.118;7.210;2023-04-22T11:24:55;2.57;;;2.37;;
6983;SDS011;3532;51.118;7.210;2023-04-22T11:27:22;5.03;;;2.70;;
6983;SDS011;3532;51.118;7.210;2023-04-22T11:30:00;4.47;;;2.93;;
6983;SDS011;3532;51.118;7.210;2023-04-22T11:32:29;2.80;;;2.60;;
6983;SDS011;3532;51.118;7.210;2023-04-22T11:34:55;5.03;;;2.33;;
6983;SDS011;3532;51.118;7.210;2023-04-22T11:37:21;6.13;;;2.60;;
6983;SDS011;3532;51.118;7.210;2023-04-22T11:39:47;4.53;;;2.60;;
6983;SDS011;3532;51.118;7.210;2023-04-22T11:42:14;4.27;;;2.87;;
6983;SDS011;3532;51.118;7.210;2023-04-22T11:44:40;3.60;;;2.47;;
6983;SDS011;3532;51.118;7.210;2023-04-22T11:47:08;3.53;;;2.50;;
6983;SDS011;3532;51.118;7.210;2023-04-22T11:49:35;4.33;;;2.70;;
6983;SDS011;3532;51.118;7.210;2023-04-22T11:52:00;3.30;;;2.63;;
6983;SDS011;3532;51.118;7.210;2023-04-22T11:54:31;3.93;;;2.37;;
6983;SDS011;3532;51.118;7.210;2023-04-22T11:57:00;3.37;;;2.70;;
6983;SDS011;3532;51.118;7.210;2023-04-22T11:59:28;4.20;;;2.80;;
6983;SDS011;3532;51.118;7.210;2023-04-22T12:01:54;4.83;;;2.60;;
6983;SDS011;3532;51.118;7.210;2023-04-22T12:04:20;5.67;;;2.83;;
6983;SDS011;3532;51.118;7.210;2023-04-22T12:06:46;4.53;;;2.50;;
6983;SDS011;3532;51.118;7.210;2023-04-22T12:09:11;4.07;;;2.70;;
6983;SDS011;3532;51.118;7.210;2023-04-22T12:11:37;3.20;;;2.90;;
6983;SDS011;3532;51.118;7.210;2023-04-22T12:14:06;4.20;;;2.67;;
6983;SDS011;3532;51.118;7.210;2023-04-22T12:16:38;4.23;;;2.40;;
6983;SDS011;3532;51.118;7.210;2023-04-22T12:19:05;2.90;;;2.50;;
6983;SDS011;3532;51.118;7.210;2023-04-22T12:21:30;3.27;;;2.30;;
6983;SDS011;3532;51.118;7.210;2023-04-22T12:23:57;2.87;;;2.57;;
6983;SDS011;3532;51.118;7.210;2023-04-22T12:26:24;3.50;;;2.83;;
6983;SDS011;3532;51.118;7.210;2023-04-22T12:28:50;2.97;;;2.67;;
6983;SDS011;3532;51.118;7.210;2023-04-22T12:31:16;3.00;;;2.80;;
6983;SDS011;3532;51.118;7.210;2023-04-22T12:33:42;3.40;;;3.10;;
6983;SDS011;3532;51.118;7.210;2023-04-22T12:36:08;3.57;;;2.63;;
6983;SDS011;3532;51.118;7.210;2023-04-22T12:38:34;4.30;;;2.90;;
6983;SDS011;3532;51.118;7.210;2023-04-22T12:40:59;3.30;;;2.73;;
6983;SDS011;3532;51.118;7.210;2023-04-22T12:43:25;3.53;;;2.40;;
6983;SDS011;3532;51.118;7.210;2023-04-22T12:45:51;3.67;;;2.83;;
6983;SDS011;3532;51.118;7.210;2023-04-22T12:48:16;4.27;;;2.97;;
6983;SDS011;3532;51.118;7.210;2023-04-22T12:50:42;3.17;;;2.50;;
6983;SDS011;3532;51.118;7.210;2023-04-22T12:53:07;3.20;;;2.90;;
6983;SDS011;3532;51.118;7.210;2023-04-22T12:55:33;4.13;;;3.13;;
6983;SDS011;3532;51.118;7.210;2023-04-22T12:57:59;2.70;;;2.50;;
6983;SDS011;3532;51.118;7.210;2023-04-22T13:00:24;2.73;;;2.53;;
6983;SDS011;3532;51.118;7.210;2023-04-22T13:02:50;4.27;;;2.83;;
6983;SDS011;3532;51.118;7.210;2023-04-22T13:05:16;4.30;;;3.00;;
6983;SDS011;3532;51.118;7.210;2023-04-22T13:07:42;3.20;;;2.77;;
6983;SDS011;3532;51.118;7.210;2023-04-22T13:10:09;5.17;;;2.80;;
6983;SDS011;3532;51.118;7.210;2023-04-22T13:12:35;4.10;;;2.80;;
6983;SDS011;3532;51.118;7.210;2023-04-22T13:15:01;8.00;;;2.90;;
6983;SDS011;3532;51.118;7.210;2023-04-22T13:17:27;5.13;;;3.07;;
6983;SDS011;3532;51.118;7.210;2023-04-22T13:19:53;5.23;;;2.90;;
6983;SDS011;3532;51.118;7.210;2023-04-22T13:22:18;3.80;;;3.20;;
6983;SDS011;3532;51.118;7.210;2023-04-22T13:24:43;5.03;;;3.23;;
6983;SDS011;3532;51.118;7.210;2023-04-22T13:27:09;4.37;;;3.10;;
6983;SDS011;3532;51.118;7.210;2023-04-22T13:29:35;3.80;;;3.13;;
6983;SDS011;3532;51.118;7.210;2023-04-22T13:32:01;4.40;;;2.70;;
6983;SDS011;3532;51.118;7.210;2023-04-22T13:34:27;3.97;;;3.00;;
6983;SDS011;3532;51.118;7.210;2023-04-22T13:36:52;3.27;;;2.83;;
6983;SDS011;3532;51.118;7.210;2023-04-22T13:39:18;3.30;;;3.00;;
6983;SDS011;3532;51.118;7.210;2023-04-22T13:41:43;4.20;;;2.57;;
6983;SDS011;3532;51.118;7.210;2023-04-22T13:44:10;5.77;;;2.77;;
6983;SDS011;3532;51.118;7.210;2023-04-22T13:46:35;3.97;;;3.00;;
6983;SDS011;3532;51.118;7.210;2023-04-22T13:49:01;5.03;;;3.17;;
6983;SDS011;3532;51.118;7.210;2023-04-22T13:51:26;3.53;;;2.87;;
6983;SDS011;3532;51.118;7.210;2023-04-22T13:53:51;5.00;;;2.60;;
6983;SDS011;3532;51.118;7.210;2023-04-22T13:56:17;2.80;;;2.60;;
6983;SDS011;3532;51.118;7.210;2023-04-22T13:58:42;3.50;;;2.67;;
6983;SDS011;3532;51.118;7.210;2023-04-22T14:01:07;3.73;;;2.67;;
6983;SDS011;3532;51.118;7.210;2023-04-22T14:03:33;5.03;;;2.87;;
6983;SDS011;3532;51.118;7.210;2023-04-22T14:05:59;3.37;;;3.07;;
6983;SDS011;3532;51.118;7.210;2023-04-22T14:08:25;3.50;;;3.20;;
6983;SDS011;3532;51.118;7.210;2023-04-22T14:10:50;3.20;;;2.90;;
6983;SDS011;3532;51.118;7.210;2023-04-22T14:13:16;4.27;;;2.40;;
6983;SDS011;3532;51.118;7.210;2023-04-22T14:15:41;3.97;;;2.87;;
6983;SDS011;3532;51.118;7.210;2023-04-22T14:18:06;3.00;;;2.53;;
6983;SDS011;3532;51.118;7.210;2023-04-22T14:20:32;3.20;;;2.90;;
6983;SDS011;3532;51.118;7.210;2023-04-22T14:22:57;3.50;;;2.90;;
6983;SDS011;3532;51.118;7.210;2023-04-22T14:25:23;3.67;;;2.53;;
6983;SDS011;3532;51.118;7.210;2023-04-22T14:27:48;2.83;;;2.60;;
6983;SDS011;3532;51.118;7.210;2023-04-22T14:30:13;2.80;;;2.47;;
6983;SDS011;3532;51.118;7.210;2023-04-22T14:32:40;2.93;;;2.60;;
6983;SDS011;3532;51.118;7.210;2023-04-22T14:35:05;4.77;;;2.70;;
6983;SDS011;3532;51.118;7.210;2023-04-22T14:37:31;4.03;;;2.80;;
6983;SDS011;3532;51.118;7.210;2023-04-22T14:39:56;3.33;;;2.73;;
6983;SDS011;3532;51.118;7.210;2023-04-22T14:42:22;3.43;;;2.83;;
6983;SDS011;3532;51.118;7.210;2023-04-22T14:44:48;4.07;;;3.10;;
6983;SDS011;3532;51.118;7.210;2023-04-22T14:47:14;2.97;;;2.77;;
6983;SDS011;3532;51.118;7.210;2023-04-22T14:49:39;4.30;;;3.23;;
6983;SDS011;3532;51.118;7.210;2023-04-22T14:52:04;3.33;;;3.00;;
6983;SDS011;3532;51.118;7.210;2023-04-22T14:54:30;5.03;;;3.40;;
6983;SDS011;3532;51.118;7.210;2023-04-22T14:56:56;4.13;;;3.03;;
6983;SDS011;3532;51.118;7.210;2023-04-22T14:59:22;3.10;;;2.83;;
6983;SDS011;3532;51.118;7.210;2023-04-22T15:01:48;4.17;;;2.80;;
6983;SDS011;3532;51.118;7.210;2023-04-22T15:04:13;4.03;;;3.30;;
6983;SDS011;3532;51.118;7.210;2023-04-22T15:06:40;4.37;;;3.70;;
6983;SDS011;3532;51.118;7.210;2023-04-22T15:09:05;3.83;;;3.27;;
6983;SDS011;3532;51.118;7.210;2023-04-22T15:11:31;4.63;;;3.27;;
6983;SDS011;3532;51.118;7.210;2023-04-22T15:13:56;3.60;;;2.70;;
6983;SDS011;3532;51.118;7.210;2023-04-22T15:16:21;4.70;;;3.40;;
6983;SDS011;3532;51.118;7.210;2023-04-22T15:18:47;3.80;;;3.50;;
6983;SDS011;3532;51.118;7.210;2023-04-22T15:21:12;3.90;;;3.10;;
6983;SDS011;3532;51.118;7.210;2023-04-22T15:23:37;3.27;;;2.97;;